sensor_id;sensor_type;location;lat;lon;timestamp;temperature;humidity
15676;DHT22;7938;47.666;9.434;2022-12-18T05:03:07;-4.70;99.90
15676;DHT22;7938;47.666;9.434;2022-12-18T05:05:34;-4.70;99.90
15676;DHT22;7938;47.666;9.434;2022-12-18T05:08:01;-4.70;99.90
15676;DHT22;7938;47.666;9.434;2022-12-18T05:10:28;-4.70;99.90
15676;DHT22;7938;47.666;9.434;2022-12-18T05:12:55;-4.70;99.90
15676;DHT22;7938;47.666;9.434;2022-12-18T05:15:27;-4.90;99.90
15676;DHT22;7938;47.666;9.434;2022-12-18T05:17:55;-4.90;99.90
15676;DHT22;7938;47.666;9.434;2022-12-18T05:20:24;-4.90;99.90
15676;DHT22;7938;47.666;9.434;2022-12-18T05:22:52;-4.90;99.90
15676;DHT22;7938;47.666;9.434;2022-12-18T05:25:19;-4.50;99.90
15676;DHT22;7938;47.666;9.434;2022-12-18T05:27:47;-4.50;99.90
15676;DHT22;7938;47.666;9.434;2022-12-18T05:30:14;-4.80;99.90
15676;DHT22;7938;47.666;9.434;2022-12-18T05:32:42;-4.80;99.90
15676;DHT22;7938;47.666;9.434;2022-12-18T05:35:10;-4.80;99.90
15676;DHT22;7938;47.666;9.434;2022-12-18T05:37:38;-4.80;99.90
15676;DHT22;7938;47.666;9.434;2022-12-18T05:40:06;-4.90;99.90
15676;DHT22;7938;47.666;9.434;2022-12-18T05:42:33;-4.90;99.90
15676;DHT22;7938;47.666;9.434;2022-12-18T05:45:00;-4.90;99.90
15676;DHT22;7938;47.666;9.434;2022-12-18T05:47:27;-4.90;99.90
15676;DHT22;7938;47.666;9.434;2022-12-18T05:49:54;-4.90;99.90
15676;DHT22;7938;47.666;9.434;2022-12-18T05:52:21;-4.90;99.90
15676;DHT22;7938;47.666;9.434;2022-12-18T05:54:49;-5.00;99.90
15676;DHT22;7938;47.666;9.434;2022-12-18T05:57:16;-4.90;99.90
15676;DHT22;7938;47.666;9.434;2022-12-18T05:59:43;-4.90;99.90
15676;DHT22;7938;47.666;9.434;2022-12-18T06:02:10;-4.90;99.90
15676;DHT22;7938;47.666;9.434;2022-12-18T06:04:37;-4.90;99.90
15676;DHT22;7938;47.666;9.434;2022-12-18T06:07:04;-4.90;99.90
15676;DHT22;7938;47.666;9.434;2022-12-18T06:09:31;-4.90;99.90
15676;DHT22;7938;47.666;9.434;2022-12-18T06:11:59;-5.00;99.90
15676;DHT22;7938;47.666;9.434;2022-12-18T06:14:26;-4.90;99.90
15676;DHT22;7938;47.666;9.434;2022-12-18T06:16:53;-4.90;99.90
15676;DHT22;7938;47.666;9.434;2022-12-18T06:19:20;-5.00;99.90
15676;DHT22;7938;47.666;9.434;2022-12-18T06:21:47;-4.90;99.90
15676;DHT22;7938;47.666;9.434;2022-12-18T06:24:14;-4.90;99.90
15676;DHT22;7938;47.666;9.434;2022-12-18T06:26:41;-4.90;99.90
15676;DHT22;7938;47.666;9.434;2022-12-18T06:29:09;-4.80;99.90
15676;DHT22;7938;47.666;9.434;2022-12-18T06:31:36;-4.80;99.90
15676;DHT22;7938;47.666;9.434;2022-12-18T06:34:03;-4.80;99.90
15676;DHT22;7938;47.666;9.434;2022-12-18T06:36:30;-4.90;99.90
15676;DHT22;7938;47.666;9.434;2022-12-18T06:38:58;-4.80;99.90
15676;DHT22;7938;47.666;9.434;2022-12-18T06:41:25;-4.80;99.90
15676;DHT22;7938;47.666;9.434;2022-12-18T06:43:52;-4.50;99.90
15676;DHT22;7938;47.666;9.434;2022-12-18T06:46:20;-4.60;99.90
15676;DHT22;7938;47.666;9.434;2022-12-18T06:48:48;-4.70;99.90
15676;DHT22;7938;47.666;9.434;2022-12-18T06:51:17;-4.90;99.90
15676;DHT22;7938;47.666;9.434;2022-12-18T06:53:44;-4.90;99.90
15676;DHT22;7938;47.666;9.434;2022-12-18T06:56:11;-4.90;99.90
15676;DHT22;7938;47.666;9.434;2022-12-18T06:58:38;-4.90;99.90
15676;DHT22;7938;47.666;9.434;2022-12-18T07:01:07;-4.90;99.90
15676;DHT22;7938;47.666;9.434;2022-12-18T07:03:36;-4.90;99.90
15676;DHT22;7938;47.666;9.434;2022-12-18T07:06:03;-4.90;99.90
15676;DHT22;7938;47.666;9.434;2022-12-18T07:08:30;-4.90;99.90
15676;DHT22;7938;47.666;9.434;2022-12-18T07:10:57;-5.00;99.90
15676;DHT22;7938;47.666;9.434;2022-12-18T07:13:24;-5.00;99.90
15676;DHT22;7938;47.666;9.434;2022-12-18T07:15:52;-5.00;99.90
15676;DHT22;7938;47.666;9.434;2022-12-18T07:18:19;-5.00;99.90
15676;DHT22;7938;47.666;9.434;2022-12-18T07:20:47;-4.90;99.90
15676;DHT22;7938;47.666;9.434;2022-12-18T07:23:14;-5.00;99.90
15676;DHT22;7938;47.666;9.434;2022-12-18T07:25:41;-4.90;99.90
15676;DHT22;7938;47.666;9.434;2022-12-18T07:28:07;-4.80;99.90
15676;DHT22;7938;47.666;9.434;2022-12-18T07:30:37;-4.80;99.90
15676;DHT22;7938;47.666;9.434;2022-12-18T07:33:03;-4.80;99.90
15676;DHT22;7938;47.666;9.434;2022-12-18T07:35:30;-4.80;99.90
15676;DHT22;7938;47.666;9.434;2022-12-18T07:38:01;-4.80;99.90
15676;DHT22;7938;47.666;9.434;2022-12-18T07:40:28;-4.70;99.90
15676;DHT22;7938;47.666;9.434;2022-12-18T07:42:55;-4.70;99.90
15676;DHT22;7938;47.666;9.434;2022-12-18T07:45:22;-4.70;99.90
15676;DHT22;7938;47.666;9.434;2022-12-18T07:47:48;-4.50;99.90
15676;DHT22;7938;47.666;9.434;2022-12-18T07:50:15;-4.40;99.90
15676;DHT22;7938;47.666;9.434;2022-12-18T07:52:42;-4.40;99.90
15676;DHT22;7938;47.666;9.434;2022-12-18T07:55:11;-4.50;99.90
15676;DHT22;7938;47.666;9.434;2022-12-18T07:57:37;-4.60;99.90
15676;DHT22;7938;47.666;9.434;2022-12-18T08:00:06;-4.50;99.90
15676;DHT22;7938;47.666;9.434;2022-12-18T08:02:33;-4.50;99.90
15676;DHT22;7938;47.666;9.434;2022-12-18T08:05:00;-4.50;99.90
15676;DHT22;7938;47.666;9.434;2022-12-18T08:07:27;-4.40;99.90
15676;DHT22;7938;47.666;9.434;2022-12-18T08:09:53;-3.90;99.90
15676;DHT22;7938;47.666;9.434;2022-12-18T08:12:22;-4.40;99.90
15676;DHT22;7938;47.666;9.434;2022-12-18T08:14:48;-4.40;99.90
15676;DHT22;7938;47.666;9.434;2022-12-18T08:17:15;-4.40;99.90
15676;DHT22;7938;47.666;9.434;2022-12-18T08:19:42;-4.40;99.90
15676;DHT22;7938;47.666;9.434;2022-12-18T08:22:09;-4.40;99.90
15676;DHT22;7938;47.666;9.434;2022-12-18T08:24:36;-4.40;99.90
15676;DHT22;7938;47.666;9.434;2022-12-18T08:27:03;-4.30;99.90
15676;DHT22;7938;47.666;9.434;2022-12-18T08:29:31;-4.20;99.90
15676;DHT22;7938;47.666;9.434;2022-12-18T08:31:59;-4.20;99.90
15676;DHT22;7938;47.666;9.434;2022-12-18T08:34:26;-4.10;99.90
15676;DHT22;7938;47.666;9.434;2022-12-18T08:36:54;-4.10;99.90
15676;DHT22;7938;47.666;9.434;2022-12-18T08:39:20;-4.10;99.90
15676;DHT22;7938;47.666;9.434;2022-12-18T08:41:47;-4.00;99.90
15676;DHT22;7938;47.666;9.434;2022-12-18T08:44:28;-3.90;99.90
15676;DHT22;7938;47.666;9.434;2022-12-18T08:47:06;-3.90;99.90
15676;DHT22;7938;47.666;9.434;2022-12-18T08:49:33;-3.80;99.90
15676;DHT22;7938;47.666;9.434;2022-12-18T08:52:00;-3.80;99.90
15676;DHT22;7938;47.666;9.434;2022-12-18T08:54:28;-3.70;99.90
15676;DHT22;7938;47.666;9.434;2022-12-18T08:56:55;-3.60;99.90
15676;DHT22;7938;47.666;9.434;2022-12-18T08:59:22;-3.50;99.90
15676;DHT22;7938;47.666;9.434;2022-12-18T09:01:49;-3.50;99.90
15676;DHT22;7938;47.666;9.434;2022-12-18T09:04:18;-3.40;99.90
15676;DHT22;7938;47.666;9.434;2022-12-18T09:06:45;-3.40;99.90
15676;DHT22;7938;47.666;9.434;2022-12-18T09:09:12;-3.40;99.90
15676;DHT22;7938;47.666;9.434;2022-12-18T09:11:39;-3.30;99.90
15676;DHT22;7938;47.666;9.434;2022-12-18T09:14:06;-3.30;99.90
15676;DHT22;7938;47.666;9.434;2022-12-18T09:16:33;-3.10;99.90
15676;DHT22;7938;47.666;9.434;2022-12-18T09:19:01;-3.10;99.90
15676;DHT22;7938;47.666;9.434;2022-12-18T09:21:31;-3.00;99.90
15676;DHT22;7938;47.666;9.434;2022-12-18T09:23:59;-3.00;99.90
15676;DHT22;7938;47.666;9.434;2022-12-18T09:26:26;-3.10;99.90
15676;DHT22;7938;47.666;9.434;2022-12-18T09:28:53;-3.10;99.90
15676;DHT22;7938;47.666;9.434;2022-12-18T09:31:22;-3.20;99.90
15676;DHT22;7938;47.666;9.434;2022-12-18T09:33:49;-3.20;99.90
15676;DHT22;7938;47.666;9.434;2022-12-18T09:36:18;-3.30;99.90
15676;DHT22;7938;47.666;9.434;2022-12-18T09:38:46;-3.20;99.90
15676;DHT22;7938;47.666;9.434;2022-12-18T09:41:43;-3.10;99.90
15676;DHT22;7938;47.666;9.434;2022-12-18T09:44:19;-3.00;99.90
15676;DHT22;7938;47.666;9.434;2022-12-18T09:46:51;-2.70;99.90
15676;DHT22;7938;47.666;9.434;2022-12-18T09:49:23;-2.90;99.90
15676;DHT22;7938;47.666;9.434;2022-12-18T09:51:54;-2.90;99.90
15676;DHT22;7938;47.666;9.434;2022-12-18T09:54:26;-3.00;99.90
15676;DHT22;7938;47.666;9.434;2022-12-18T09:56:56;-3.10;99.90
15676;DHT22;7938;47.666;9.434;2022-12-18T09:59:25;-3.10;99.90
15676;DHT22;7938;47.666;9.434;2022-12-18T10:01:53;-3.10;99.90
15676;DHT22;7938;47.666;9.434;2022-12-18T10:04:20;-3.10;99.90
15676;DHT22;7938;47.666;9.434;2022-12-18T10:06:52;-3.00;99.90
15676;DHT22;7938;47.666;9.434;2022-12-18T10:09:28;-2.90;99.90
15676;DHT22;7938;47.666;9.434;2022-12-18T10:12:02;-3.00;99.90
15676;DHT22;7938;47.666;9.434;2022-12-18T10:14:36;-2.90;99.90
15676;DHT22;7938;47.666;9.434;2022-12-18T10:17:13;-2.90;99.90
15676;DHT22;7938;47.666;9.434;2022-12-18T10:19:47;-2.90;99.90
15676;DHT22;7938;47.666;9.434;2022-12-18T10:22:23;-2.80;99.90
15676;DHT22;7938;47.666;9.434;2022-12-18T10:25:00;-2.90;99.90
15676;DHT22;7938;47.666;9.434;2022-12-18T10:27:28;-3.00;99.90
15676;DHT22;7938;47.666;9.434;2022-12-18T10:29:56;-3.00;99.90
15676;DHT22;7938;47.666;9.434;2022-12-18T10:32:25;-2.90;99.90
15676;DHT22;7938;47.666;9.434;2022-12-18T10:34:55;-2.90;99.90
15676;DHT22;7938;47.666;9.434;2022-12-18T10:37:25;-2.90;99.90
15676;DHT22;7938;47.666;9.434;2022-12-18T10:40:09;-2.80;99.90
15676;DHT22;7938;47.666;9.434;2022-12-18T10:42:37;-2.80;99.90
15676;DHT22;7938;47.666;9.434;2022-12-18T10:45:09;-2.80;99.90
15676;DHT22;7938;47.666;9.434;2022-12-18T10:47:36;-2.60;99.90
15676;DHT22;7938;47.666;9.434;2022-12-18T10:50:19;-2.20;99.90
15676;DHT22;7938;47.666;9.434;2022-12-18T10:52:55;-2.20;99.90
15676;DHT22;7938;47.666;9.434;2022-12-18T10:55:27;-2.30;99.90
15676;DHT22;7938;47.666;9.434;2022-12-18T10:58:13;-2.40;99.90
15676;DHT22;7938;47.666;9.434;2022-12-18T11:00:42;-2.50;99.90
15676;DHT22;7938;47.666;9.434;2022-12-18T11:03:31;-2.60;99.90
15676;DHT22;7938;47.666;9.434;2022-12-18T11:06:06;-2.50;99.90
15676;DHT22;7938;47.666;9.434;2022-12-18T11:08:33;-2.50;99.90
15676;DHT22;7938;47.666;9.434;2022-12-18T11:11:02;-2.40;99.90
15676;DHT22;7938;47.666;9.434;2022-12-18T11:13:30;-2.40;99.90
15676;DHT22;7938;47.666;9.434;2022-12-18T11:15:58;-2.50;99.90
15676;DHT22;7938;47.666;9.434;2022-12-18T11:18:28;-2.50;99.90
15676;DHT22;7938;47.666;9.434;2022-12-18T11:20:57;-2.40;99.90
15676;DHT22;7938;47.666;9.434;2022-12-18T11:23:26;-2.40;99.90
15676;DHT22;7938;47.666;9.434;2022-12-18T11:25:56;-2.40;99.90
15676;DHT22;7938;47.666;9.434;2022-12-18T11:28:36;-2.40;99.90
15676;DHT22;7938;47.666;9.434;2022-12-18T11:31:25;-2.40;99.90
15676;DHT22;7938;47.666;9.434;2022-12-18T11:34:02;-2.40;99.90
15676;DHT22;7938;47.666;9.434;2022-12-18T11:36:34;-2.20;99.90
15676;DHT22;7938;47.666;9.434;2022-12-18T11:39:10;-2.00;99.90
15676;DHT22;7938;47.666;9.434;2022-12-18T11:41:43;-2.10;99.90
15676;DHT22;7938;47.666;9.434;2022-12-18T11:44:41;-1.90;99.90
15676;DHT22;7938;47.666;9.434;2022-12-18T11:47:16;-2.00;99.90
15676;DHT22;7938;47.666;9.434;2022-12-18T11:49:48;-2.00;99.90
15676;DHT22;7938;47.666;9.434;2022-12-18T11:52:18;-2.00;99.90
15676;DHT22;7938;47.666;9.434;2022-12-18T11:54:46;-0.90;99.90
15676;DHT22;7938;47.666;9.434;2022-12-18T11:57:18;-1.90;99.90
15676;DHT22;7938;47.666;9.434;2022-12-18T12:00:00;-1.60;99.90
15676;DHT22;7938;47.666;9.434;2022-12-18T12:02:46;-1.70;99.90
15676;DHT22;7938;47.666;9.434;2022-12-18T12:05:31;-1.70;99.90
15676;DHT22;7938;47.666;9.434;2022-12-18T12:08:06;-2.20;99.90
15676;DHT22;7938;47.666;9.434;2022-12-18T12:10:46;-1.70;99.90
15676;DHT22;7938;47.666;9.434;2022-12-18T12:13:29;-1.50;99.90
15676;DHT22;7938;47.666;9.434;2022-12-18T12:16:07;-1.60;99.90
15676;DHT22;7938;47.666;9.434;2022-12-18T12:19:00;-1.70;99.90
15676;DHT22;7938;47.666;9.434;2022-12-18T12:21:36;-1.90;99.90
15676;DHT22;7938;47.666;9.434;2022-12-18T12:24:22;-1.90;99.90
15676;DHT22;7938;47.666;9.434;2022-12-18T12:27:00;-1.80;99.90
15676;DHT22;7938;47.666;9.434;2022-12-18T12:29:42;-1.70;99.90
15676;DHT22;7938;47.666;9.434;2022-12-18T12:32:32;-1.80;99.90
15676;DHT22;7938;47.666;9.434;2022-12-18T12:35:12;-2.10;99.90
15676;DHT22;7938;47.666;9.434;2022-12-18T12:37:48;-2.00;99.90
15676;DHT22;7938;47.666;9.434;2022-12-18T12:40:18;-1.80;99.90
15676;DHT22;7938;47.666;9.434;2022-12-18T12:42:48;-1.80;99.90
15676;DHT22;7938;47.666;9.434;2022-12-18T12:45:39;-1.70;99.90
15676;DHT22;7938;47.666;9.434;2022-12-18T12:48:16;-1.70;99.90
15676;DHT22;7938;47.666;9.434;2022-12-18T12:50:45;-1.70;99.90
15676;DHT22;7938;47.666;9.434;2022-12-18T12:53:25;-1.70;99.90
15676;DHT22;7938;47.666;9.434;2022-12-18T12:55:53;-2.00;99.90
15676;DHT22;7938;47.666;9.434;2022-12-18T12:58:29;-2.00;99.90
15676;DHT22;7938;47.666;9.434;2022-12-18T13:01:08;-2.00;99.90
15676;DHT22;7938;47.666;9.434;2022-12-18T13:03:44;-2.10;99.90
15676;DHT22;7938;47.666;9.434;2022-12-18T13:06:18;-2.00;99.90
15676;DHT22;7938;47.666;9.434;2022-12-18T13:08:55;-1.90;99.90
15676;DHT22;7938;47.666;9.434;2022-12-18T13:11:39;-2.00;99.90
15676;DHT22;7938;47.666;9.434;2022-12-18T13:14:28;-2.10;99.90
15676;DHT22;7938;47.666;9.434;2022-12-18T13:17:14;-1.80;99.90
15676;DHT22;7938;47.666;9.434;2022-12-18T13:19:43;-1.80;99.90
15676;DHT22;7938;47.666;9.434;2022-12-18T13:22:22;-1.80;99.90
15676;DHT22;7938;47.666;9.434;2022-12-18T13:24:49;-1.70;99.90
15676;DHT22;7938;47.666;9.434;2022-12-18T13:30:45;-1.80;99.90
15676;DHT22;7938;47.666;9.434;2022-12-18T13:33:36;-1.80;99.90
15676;DHT22;7938;47.666;9.434;2022-12-18T13:36:14;-1.90;99.90
15676;DHT22;7938;47.666;9.434;2022-12-18T13:38:42;-1.90;99.90
15676;DHT22;7938;47.666;9.434;2022-12-18T13:41:24;-1.80;99.90
15676;DHT22;7938;47.666;9.434;2022-12-18T13:43:52;-1.90;99.90
15676;DHT22;7938;47.666;9.434;2022-12-18T13:46:27;-1.90;99.90
15676;DHT22;7938;47.666;9.434;2022-12-18T13:48:57;-1.90;99.90
15676;DHT22;7938;47.666;9.434;2022-12-18T13:51:27;-1.90;99.90
15676;DHT22;7938;47.666;9.434;2022-12-18T13:53:57;-1.70;99.90
15676;DHT22;7938;47.666;9.434;2022-12-18T13:56:27;-1.70;99.90
15676;DHT22;7938;47.666;9.434;2022-12-18T13:59:10;-1.70;99.90
15676;DHT22;7938;47.666;9.434;2022-12-18T14:01:46;-1.80;99.90
15676;DHT22;7938;47.666;9.434;2022-12-18T14:04:20;-1.90;99.90
15676;DHT22;7938;47.666;9.434;2022-12-18T14:06:52;-1.90;99.90
15676;DHT22;7938;47.666;9.434;2022-12-18T14:09:24;-1.90;99.90
15676;DHT22;7938;47.666;9.434;2022-12-18T14:11:52;-1.90;99.90
15676;DHT22;7938;47.666;9.434;2022-12-18T14:14:41;-1.90;99.90
15676;DHT22;7938;47.666;9.434;2022-12-18T14:17:10;-2.00;99.90
15676;DHT22;7938;47.666;9.434;2022-12-18T14:19:40;-2.00;99.90
15676;DHT22;7938;47.666;9.434;2022-12-18T14:22:15;-2.00;99.90
15676;DHT22;7938;47.666;9.434;2022-12-18T14:24:42;-0.90;99.90
15676;DHT22;7938;47.666;9.434;2022-12-18T14:27:23;-2.00;99.90
15676;DHT22;7938;47.666;9.434;2022-12-18T14:29:50;-2.10;99.90
15676;DHT22;7938;47.666;9.434;2022-12-18T14:32:18;-2.30;99.90
15676;DHT22;7938;47.666;9.434;2022-12-18T14:34:47;-2.30;99.90
15676;DHT22;7938;47.666;9.434;2022-12-18T14:37:16;-2.40;99.90
15676;DHT22;7938;47.666;9.434;2022-12-18T14:39:57;-2.40;99.90
15676;DHT22;7938;47.666;9.434;2022-12-18T14:42:25;-2.20;99.90
15676;DHT22;7938;47.666;9.434;2022-12-18T14:47:54;-2.10;99.90
15676;DHT22;7938;47.666;9.434;2022-12-18T14:50:21;-2.30;99.90
15676;DHT22;7938;47.666;9.434;2022-12-18T14:52:49;-2.30;99.90
15676;DHT22;7938;47.666;9.434;2022-12-18T14:55:17;-2.40;99.90
15676;DHT22;7938;47.666;9.434;2022-12-18T14:57:45;-2.50;99.90
15676;DHT22;7938;47.666;9.434;2022-12-18T15:00:18;-2.60;99.90
15676;DHT22;7938;47.666;9.434;2022-12-18T15:02:46;-2.70;99.90
15676;DHT22;7938;47.666;9.434;2022-12-18T15:05:18;-2.70;99.90
15676;DHT22;7938;47.666;9.434;2022-12-18T15:07:48;-2.60;99.90
15676;DHT22;7938;47.666;9.434;2022-12-18T15:10:18;-2.60;99.90
15676;DHT22;7938;47.666;9.434;2022-12-18T15:12:47;-2.60;99.90
15676;DHT22;7938;47.666;9.434;2022-12-18T15:15:47;-2.60;99.90
15676;DHT22;7938;47.666;9.434;2022-12-18T15:18:16;-2.70;99.90
15676;DHT22;7938;47.666;9.434;2022-12-18T15:20:44;-2.80;99.90
15676;DHT22;7938;47.666;9.434;2022-12-18T15:23:17;-2.80;99.90
15676;DHT22;7938;47.666;9.434;2022-12-18T15:25:45;-3.00;99.90
15676;DHT22;7938;47.666;9.434;2022-12-18T15:28:19;-2.80;99.90
15676;DHT22;7938;47.666;9.434;2022-12-18T15:30:59;-2.90;99.90
15676;DHT22;7938;47.666;9.434;2022-12-18T15:33:31;-2.80;99.90
15676;DHT22;7938;47.666;9.434;2022-12-18T15:35:59;-2.90;99.90
15676;DHT22;7938;47.666;9.434;2022-12-18T15:38:28;-2.90;99.90
15676;DHT22;7938;47.666;9.434;2022-12-18T15:40:55;-2.90;99.90
15676;DHT22;7938;47.666;9.434;2022-12-18T15:43:23;-2.90;99.90
15676;DHT22;7938;47.666;9.434;2022-12-18T15:46:04;-2.90;99.90
15676;DHT22;7938;47.666;9.434;2022-12-18T15:48:39;-2.60;99.90
15676;DHT22;7938;47.666;9.434;2022-12-18T15:51:11;-2.70;99.90
15676;DHT22;7938;47.666;9.434;2022-12-18T15:53:40;-2.80;99.90
15676;DHT22;7938;47.666;9.434;2022-12-18T15:56:09;-2.90;99.90
15676;DHT22;7938;47.666;9.434;2022-12-18T15:58:54;-3.00;99.90
15676;DHT22;7938;47.666;9.434;2022-12-18T16:01:23;-3.00;99.90
15676;DHT22;7938;47.666;9.434;2022-12-18T16:03:51;-3.00;99.90
15676;DHT22;7938;47.666;9.434;2022-12-18T16:06:19;-3.00;99.90
15676;DHT22;7938;47.666;9.434;2022-12-18T16:08:47;-3.00;99.90
15676;DHT22;7938;47.666;9.434;2022-12-18T16:11:21;-3.10;99.90
15676;DHT22;7938;47.666;9.434;2022-12-18T16:14:04;-3.00;99.90
15676;DHT22;7938;47.666;9.434;2022-12-18T16:16:31;-3.00;99.90
15676;DHT22;7938;47.666;9.434;2022-12-18T16:18:58;-3.10;99.90
15676;DHT22;7938;47.666;9.434;2022-12-18T16:21:25;-3.00;99.90
15676;DHT22;7938;47.666;9.434;2022-12-18T16:23:53;-3.00;99.90
15676;DHT22;7938;47.666;9.434;2022-12-18T16:26:20;-3.00;99.90
15676;DHT22;7938;47.666;9.434;2022-12-18T16:28:47;-3.00;99.90
15676;DHT22;7938;47.666;9.434;2022-12-18T16:31:14;-3.00;99.90
15676;DHT22;7938;47.666;9.434;2022-12-18T16:33:41;-3.00;99.90
15676;DHT22;7938;47.666;9.434;2022-12-18T16:36:08;-3.00;99.90
15676;DHT22;7938;47.666;9.434;2022-12-18T16:38:35;-3.00;99.90
15676;DHT22;7938;47.666;9.434;2022-12-18T16:41:15;-3.00;99.90
15676;DHT22;7938;47.666;9.434;2022-12-18T16:43:59;-3.00;99.90
15676;DHT22;7938;47.666;9.434;2022-12-18T16:46:26;-2.90;99.90
15676;DHT22;7938;47.666;9.434;2022-12-18T16:48:53;-2.90;99.90
15676;DHT22;7938;47.666;9.434;2022-12-18T16:51:20;-3.00;99.90
15676;DHT22;7938;47.666;9.434;2022-12-18T16:53:47;-3.00;99.90
15676;DHT22;7938;47.666;9.434;2022-12-18T16:56:15;-3.00;99.90
15676;DHT22;7938;47.666;9.434;2022-12-18T16:58:42;-3.00;99.90
15676;DHT22;7938;47.666;9.434;2022-12-18T17:01:09;-3.00;99.90
15676;DHT22;7938;47.666;9.434;2022-12-18T17:03:36;-3.00;99.90
15676;DHT22;7938;47.666;9.434;2022-12-18T17:06:04;-3.00;99.90
15676;DHT22;7938;47.666;9.434;2022-12-18T17:08:31;-3.00;99.90
15676;DHT22;7938;47.666;9.434;2022-12-18T17:11:03;-3.00;99.90
15676;DHT22;7938;47.666;9.434;2022-12-18T17:13:31;-3.00;99.90
15676;DHT22;7938;47.666;9.434;2022-12-18T17:16:01;-3.00;99.90
15676;DHT22;7938;47.666;9.434;2022-12-18T17:18:29;-2.90;99.90
15676;DHT22;7938;47.666;9.434;2022-12-18T17:20:58;-3.00;99.90
15676;DHT22;7938;47.666;9.434;2022-12-18T17:23:25;-3.10;99.90
15676;DHT22;7938;47.666;9.434;2022-12-18T17:25:53;-3.10;99.90
15676;DHT22;7938;47.666;9.434;2022-12-18T17:28:21;-3.10;99.90
15676;DHT22;7938;47.666;9.434;2022-12-18T17:30:49;-2.90;99.90
15676;DHT22;7938;47.666;9.434;2022-12-18T17:33:16;-2.70;99.90
15676;DHT22;7938;47.666;9.434;2022-12-18T17:35:43;-2.80;99.90
15676;DHT22;7938;47.666;9.434;2022-12-18T17:38:10;-3.00;99.90
15676;DHT22;7938;47.666;9.434;2022-12-18T17:40:37;-3.00;99.90
15676;DHT22;7938;47.666;9.434;2022-12-18T17:43:05;-3.00;99.90
15676;DHT22;7938;47.666;9.434;2022-12-18T17:45:34;-3.10;99.90
15676;DHT22;7938;47.666;9.434;2022-12-18T17:48:02;-3.10;99.90
15676;DHT22;7938;47.666;9.434;2022-12-18T17:50:29;-3.10;99.90
15676;DHT22;7938;47.666;9.434;2022-12-18T17:52:56;-3.20;99.90
15676;DHT22;7938;47.666;9.434;2022-12-18T17:55:23;-3.10;99.90
15676;DHT22;7938;47.666;9.434;2022-12-18T17:57:50;-3.20;99.90
15676;DHT22;7938;47.666;9.434;2022-12-18T18:02:45;-3.20;99.90
15676;DHT22;7938;47.666;9.434;2022-12-18T18:05:14;-3.20;99.90
15676;DHT22;7938;47.666;9.434;2022-12-18T18:07:40;-3.30;99.90
15676;DHT22;7938;47.666;9.434;2022-12-18T18:10:08;-3.30;99.90
15676;DHT22;7938;47.666;9.434;2022-12-18T18:12:36;-3.30;99.90
15676;DHT22;7938;47.666;9.434;2022-12-18T18:15:20;-3.30;99.90
15676;DHT22;7938;47.666;9.434;2022-12-18T18:17:47;-3.30;99.90
15676;DHT22;7938;47.666;9.434;2022-12-18T18:20:16;-3.20;99.90
15676;DHT22;7938;47.666;9.434;2022-12-18T18:22:43;-3.30;99.90
15676;DHT22;7938;47.666;9.434;2022-12-18T18:25:10;-3.20;99.90
15676;DHT22;7938;47.666;9.434;2022-12-18T18:27:37;-3.20;99.90
15676;DHT22;7938;47.666;9.434;2022-12-18T18:30:05;-3.20;99.90
15676;DHT22;7938;47.666;9.434;2022-12-18T18:32:32;-3.20;99.90
15676;DHT22;7938;47.666;9.434;2022-12-18T18:35:03;-3.20;99.90
15676;DHT22;7938;47.666;9.434;2022-12-18T18:37:31;-3.30;99.90
15676;DHT22;7938;47.666;9.434;2022-12-18T18:39:58;-3.30;99.90
15676;DHT22;7938;47.666;9.434;2022-12-18T18:42:25;-3.30;99.90
15676;DHT22;7938;47.666;9.434;2022-12-18T18:44:52;-3.30;99.90
15676;DHT22;7938;47.666;9.434;2022-12-18T18:47:19;-3.40;99.90
15676;DHT22;7938;47.666;9.434;2022-12-18T18:49:46;-3.30;99.90
15676;DHT22;7938;47.666;9.434;2022-12-18T18:52:13;-3.30;99.90
15676;DHT22;7938;47.666;9.434;2022-12-18T18:54:41;-3.30;99.90
15676;DHT22;7938;47.666;9.434;2022-12-18T18:59:36;-3.40;99.90
15676;DHT22;7938;47.666;9.434;2022-12-18T19:02:03;-3.40;99.90
15676;DHT22;7938;47.666;9.434;2022-12-18T19:04:31;-3.30;99.90
15676;DHT22;7938;47.666;9.434;2022-12-18T19:06:58;-3.40;99.90
15676;DHT22;7938;47.666;9.434;2022-12-18T19:09:25;-3.10;99.90
15676;DHT22;7938;47.666;9.434;2022-12-18T19:11:54;-3.40;99.90
15676;DHT22;7938;47.666;9.434;2022-12-18T19:14:37;-3.60;99.90
15676;DHT22;7938;47.666;9.434;2022-12-18T19:17:04;-3.70;99.90
15676;DHT22;7938;47.666;9.434;2022-12-18T19:19:31;-3.70;99.90
15676;DHT22;7938;47.666;9.434;2022-12-18T19:21:59;-3.70;99.90
15676;DHT22;7938;47.666;9.434;2022-12-18T19:24:26;-3.60;99.90
15676;DHT22;7938;47.666;9.434;2022-12-18T19:26:54;-2.80;99.90
15676;DHT22;7938;47.666;9.434;2022-12-18T19:29:21;-3.70;99.90
15676;DHT22;7938;47.666;9.434;2022-12-18T19:31:48;-3.80;99.90
15676;DHT22;7938;47.666;9.434;2022-12-18T19:34:15;-3.80;99.90
15676;DHT22;7938;47.666;9.434;2022-12-18T19:36:43;-3.80;99.90
15676;DHT22;7938;47.666;9.434;2022-12-18T19:39:11;-3.80;99.90
15676;DHT22;7938;47.666;9.434;2022-12-18T19:41:40;-3.70;99.90
15676;DHT22;7938;47.666;9.434;2022-12-18T19:44:10;-4.50;99.90
15676;DHT22;7938;47.666;9.434;2022-12-18T19:49:06;-3.80;99.90
15676;DHT22;7938;47.666;9.434;2022-12-18T19:51:33;-3.80;99.90
15676;DHT22;7938;47.666;9.434;2022-12-18T19:56:30;-4.00;99.90
15676;DHT22;7938;47.666;9.434;2022-12-18T19:58:57;-4.00;99.90
15676;DHT22;7938;47.666;9.434;2022-12-18T20:01:27;-4.00;99.90
15676;DHT22;7938;47.666;9.434;2022-12-18T20:03:54;-4.00;99.90
15676;DHT22;7938;47.666;9.434;2022-12-18T20:06:24;-4.00;99.90
15676;DHT22;7938;47.666;9.434;2022-12-18T20:08:52;-3.90;99.90
15676;DHT22;7938;47.666;9.434;2022-12-18T20:11:19;-3.90;99.90
15676;DHT22;7938;47.666;9.434;2022-12-18T20:13:46;-3.90;99.90
15676;DHT22;7938;47.666;9.434;2022-12-18T20:16:13;-3.80;99.90
15676;DHT22;7938;47.666;9.434;2022-12-18T20:18:41;-3.90;99.90
15676;DHT22;7938;47.666;9.434;2022-12-18T20:21:08;-3.90;99.90
15676;DHT22;7938;47.666;9.434;2022-12-18T20:26:02;-3.90;99.90
15676;DHT22;7938;47.666;9.434;2022-12-18T20:28:29;-3.60;99.90
15676;DHT22;7938;47.666;9.434;2022-12-18T20:31:00;-3.60;99.90
15676;DHT22;7938;47.666;9.434;2022-12-18T20:33:27;-3.70;99.90
15676;DHT22;7938;47.666;9.434;2022-12-18T20:36:01;-3.70;99.90
15676;DHT22;7938;47.666;9.434;2022-12-18T20:38:28;-3.80;99.90
15676;DHT22;7938;47.666;9.434;2022-12-18T20:40:56;-3.80;99.90
15676;DHT22;7938;47.666;9.434;2022-12-18T20:43:23;-3.80;99.90
15676;DHT22;7938;47.666;9.434;2022-12-18T20:45:50;-3.90;99.90
15676;DHT22;7938;47.666;9.434;2022-12-18T20:48:26;-3.90;99.90
15676;DHT22;7938;47.666;9.434;2022-12-18T20:50:56;-3.90;99.90
15676;DHT22;7938;47.666;9.434;2022-12-18T20:53:25;-3.90;99.90
15676;DHT22;7938;47.666;9.434;2022-12-18T20:55:52;-3.90;99.90
15676;DHT22;7938;47.666;9.434;2022-12-18T20:58:19;-3.90;99.90
15676;DHT22;7938;47.666;9.434;2022-12-18T21:00:46;-3.90;99.90
15676;DHT22;7938;47.666;9.434;2022-12-18T21:03:13;-3.90;99.90
15676;DHT22;7938;47.666;9.434;2022-12-18T21:05:40;-3.90;99.90
15676;DHT22;7938;47.666;9.434;2022-12-18T21:08:08;-3.90;99.90
15676;DHT22;7938;47.666;9.434;2022-12-18T21:10:37;-3.90;99.90
15676;DHT22;7938;47.666;9.434;2022-12-18T21:13:04;-3.80;99.90
15676;DHT22;7938;47.666;9.434;2022-12-18T21:15:31;-3.90;99.90
15676;DHT22;7938;47.666;9.434;2022-12-18T21:17:58;-3.90;99.90
15676;DHT22;7938;47.666;9.434;2022-12-18T21:20:24;-3.90;99.90
15676;DHT22;7938;47.666;9.434;2022-12-18T21:22:51;-3.90;99.90
15676;DHT22;7938;47.666;9.434;2022-12-18T21:25:18;-3.90;99.90